createdAt,value
2023-08-08T00:01:18.891Z,98745.31
2023-08-08T00:03:46.592Z,98745.59
2023-08-08T00:06:14.760Z,98747.61
2023-08-08T00:08:42.661Z,98751.61
2023-08-08T00:11:10.255Z,98753.64
2023-08-08T00:13:38.098Z,98751.60
2023-08-08T00:16:06.445Z,98752.19
2023-08-08T00:18:34.195Z,98755.33
2023-08-08T00:21:01.975Z,98752.86
2023-08-08T00:23:29.820Z,98757.21
2023-08-08T00:25:57.499Z,98759.98
2023-08-08T00:28:25.580Z,98765.45
2023-08-08T00:30:54.397Z,98762.56
2023-08-08T00:33:22.203Z,98759.20
2023-08-08T00:35:49.960Z,98762.42
2023-08-08T00:38:19.485Z,98764.30
2023-08-08T00:40:47.680Z,98760.77
2023-08-08T00:43:15.449Z,98760.96
2023-08-08T00:45:44.665Z,98768.37
2023-08-08T00:48:13.009Z,98766.63
2023-08-08T00:50:45.655Z,98762.96
2023-08-08T00:53:13.705Z,98760.40
2023-08-08T00:55:42.137Z,98760.86
2023-08-08T00:58:10.229Z,98764.55
2023-08-08T01:00:38.058Z,98763.46
2023-08-08T01:03:06.467Z,98762.46
2023-08-08T01:05:39.714Z,98763.29
2023-08-08T01:08:08.857Z,98767.86
2023-08-08T01:10:40.750Z,98767.74
2023-08-08T01:13:12.610Z,98764.36
2023-08-08T01:15:40.877Z,98768.64
2023-08-08T01:18:11.049Z,98768.70
2023-08-08T01:20:39.618Z,98768.60
2023-08-08T01:23:20.865Z,98771.30
2023-08-08T01:25:49.751Z,98775.06
2023-08-08T01:28:21.717Z,98775.77
2023-08-08T01:30:49.748Z,98777.55
2023-08-08T01:33:17.603Z,98781.02
2023-08-08T01:35:51.904Z,98779.13
2023-08-08T01:38:28.278Z,98783.06
2023-08-08T01:40:59.121Z,98790.91
2023-08-08T01:43:28.080Z,98798.04
2023-08-08T01:45:56.441Z,98800.41
2023-08-08T01:48:24.310Z,98802.70
2023-08-08T01:50:52.942Z,98802.15
2023-08-08T01:53:20.664Z,98803.53
2023-08-08T01:55:48.387Z,98800.70
2023-08-08T01:58:16.385Z,98803.05
2023-08-08T02:00:45.460Z,98798.63
2023-08-08T02:03:13.180Z,98796.42
2023-08-08T02:05:41.670Z,98802.31
2023-08-08T02:08:09.336Z,98806.98
2023-08-08T02:10:36.953Z,98805.00
2023-08-08T02:13:05.189Z,98805.27
2023-08-08T02:15:32.838Z,98805.14
2023-08-08T02:18:02.031Z,98808.48
2023-08-08T02:20:30.004Z,98814.62
2023-08-08T02:22:57.616Z,98821.34
2023-08-08T02:25:25.299Z,98824.95
2023-08-08T02:27:53.168Z,98825.77
2023-08-08T02:30:21.022Z,98829.08
2023-08-08T02:32:48.710Z,98828.34
2023-08-08T02:35:16.736Z,98830.80
2023-08-08T02:37:44.403Z,98829.73
2023-08-08T02:40:12.341Z,98829.02
2023-08-08T02:42:40.350Z,98829.33
2023-08-08T02:45:08.783Z,98832.24
2023-08-08T02:47:36.496Z,98827.54
2023-08-08T02:50:04.938Z,98828.87
2023-08-08T02:52:33.371Z,98832.89
2023-08-08T02:55:01.064Z,98836.30
2023-08-08T02:57:29.328Z,98839.70
2023-08-08T02:59:57.255Z,98840.64
2023-08-08T03:02:25.627Z,98833.92
2023-08-08T03:04:54.333Z,98832.39
2023-08-08T03:07:23.032Z,98837.38
2023-08-08T03:09:51.596Z,98838.62
2023-08-08T03:12:19.620Z,98841.94
2023-08-08T03:14:48.517Z,98844.16
2023-08-08T03:17:16.167Z,98837.44
2023-08-08T03:19:44.859Z,98847.28
2023-08-08T03:22:12.970Z,98848.85
2023-08-08T03:24:41.049Z,98851.64
2023-08-08T03:27:08.802Z,98859.04
2023-08-08T03:29:36.557Z,98859.83
2023-08-08T03:32:06.035Z,98865.88
2023-08-08T03:34:34.213Z,98865.09
2023-08-08T03:37:02.020Z,98867.35
2023-08-08T03:39:29.843Z,98880.03
2023-08-08T03:41:57.982Z,98882.64
2023-08-08T03:44:26.128Z,98878.86
2023-08-08T03:47:02.296Z,98885.11
2023-08-08T03:49:37.748Z,98893.43
2023-08-08T03:52:05.734Z,98894.52
2023-08-08T03:54:33.836Z,98894.02
2023-08-08T03:57:02.367Z,98893.35
2023-08-08T03:59:30.292Z,98897.30
2023-08-08T04:01:57.955Z,98898.65
2023-08-08T04:04:25.727Z,98894.59
2023-08-08T04:06:53.483Z,98901.92
2023-08-08T04:09:21.170Z,98908.02
2023-08-08T04:11:48.982Z,98909.58
2023-08-08T04:14:16.727Z,98914.33
2023-08-08T04:16:44.351Z,98912.98
2023-08-08T04:19:12.096Z,98921.16
2023-08-08T04:21:39.960Z,98929.63
2023-08-08T04:24:09.089Z,98930.14
2023-08-08T04:26:36.923Z,98933.15
2023-08-08T04:29:04.963Z,98930.63
2023-08-08T04:31:32.615Z,98941.26
2023-08-08T04:34:02.636Z,98943.96
2023-08-08T04:36:31.714Z,98944.46
2023-08-08T04:38:59.420Z,98944.46
2023-08-08T04:41:27.102Z,98955.27
2023-08-08T04:43:54.867Z,98961.75
2023-08-08T04:46:22.739Z,98966.73
2023-08-08T04:48:50.678Z,98971.27
2023-08-08T04:51:19.181Z,98978.02
2023-08-08T04:53:46.752Z,98982.60
2023-08-08T04:56:14.829Z,98987.06
2023-08-08T04:58:42.530Z,98988.29
2023-08-08T05:01:13.360Z,98987.16
2023-08-08T05:03:41.750Z,98987.89
2023-08-08T05:06:09.509Z,98987.55
2023-08-08T05:08:37.303Z,98981.77
2023-08-08T05:11:05.009Z,98984.56
2023-08-08T05:13:32.671Z,98985.23
2023-08-08T05:16:00.442Z,98979.09
2023-08-08T05:18:28.107Z,98982.14
2023-08-08T05:20:55.723Z,98983.28
2023-08-08T05:23:23.585Z,98980.13
2023-08-08T05:25:51.266Z,98979.33
2023-08-08T05:28:18.933Z,98984.84
2023-08-08T05:30:46.745Z,98987.96
2023-08-08T05:33:14.571Z,98991.41
2023-08-08T05:35:42.441Z,98989.42
2023-08-08T05:38:10.095Z,98991.94
2023-08-08T05:40:37.861Z,98995.30
2023-08-08T05:43:05.903Z,98996.23
2023-08-08T05:45:33.467Z,98989.92
2023-08-08T05:48:01.783Z,98992.20
2023-08-08T05:50:29.634Z,98999.73
2023-08-08T05:52:57.425Z,99003.39
2023-08-08T05:55:25.267Z,98999.10
2023-08-08T05:57:53.027Z,99004.45
2023-08-08T06:00:20.968Z,99004.06
2023-08-08T06:02:48.654Z,99002.18
2023-08-08T06:05:18.764Z,99006.88
2023-08-08T06:07:46.605Z,99010.03
2023-08-08T06:10:14.445Z,99007.16
2023-08-08T06:12:42.875Z,99006.00
2023-08-08T06:15:10.972Z,99002.25
2023-08-08T06:17:38.755Z,99002.45
2023-08-08T06:20:08.333Z,99008.84
2023-08-08T06:22:36.246Z,99013.46
2023-08-08T06:25:04.708Z,99010.98
2023-08-08T06:27:32.310Z,99009.74
2023-08-08T06:30:00.391Z,99014.73
2023-08-08T06:32:28.548Z,99012.77
2023-08-08T06:34:56.456Z,99012.89
2023-08-08T06:37:24.460Z,99017.65
2023-08-08T06:39:52.065Z,99019.58
2023-08-08T06:42:22.920Z,99019.60
2023-08-08T06:44:58.072Z,99019.21
2023-08-08T06:47:25.863Z,99022.77
2023-08-08T06:49:54.053Z,99022.63
2023-08-08T06:52:23.700Z,99023.40
2023-08-08T06:54:51.436Z,99021.79
2023-08-08T06:57:19.087Z,99017.99
2023-08-08T06:59:51.766Z,99019.85
2023-08-08T07:02:20.558Z,99026.15
2023-08-08T07:04:48.506Z,99029.70
2023-08-08T07:07:16.325Z,99027.87
2023-08-08T07:09:45.144Z,99027.86
2023-08-08T07:12:12.933Z,99031.27
2023-08-08T07:14:41.007Z,99037.48
2023-08-08T07:17:08.667Z,99031.91
2023-08-08T07:19:37.603Z,99036.89
2023-08-08T07:22:05.571Z,99040.00
2023-08-08T07:24:33.245Z,99045.73
2023-08-08T07:27:00.988Z,99046.77
2023-08-08T07:29:28.693Z,99042.55
2023-08-08T07:31:56.924Z,99045.60
2023-08-08T07:34:24.705Z,99046.02
2023-08-08T07:36:52.515Z,99044.38
2023-08-08T07:39:20.322Z,99044.58
2023-08-08T07:41:48.043Z,99043.14
2023-08-08T07:44:15.720Z,99041.19
2023-08-08T07:46:43.619Z,99038.86
2023-08-08T07:49:11.507Z,99040.94
2023-08-08T07:51:39.191Z,99045.42
2023-08-08T07:54:09.868Z,99040.46
2023-08-08T07:56:38.147Z,99037.07
2023-08-08T07:59:06.643Z,99032.35
2023-08-08T08:01:34.428Z,99035.96
2023-08-08T08:04:04.181Z,99039.45
2023-08-08T08:06:32.561Z,99039.02
2023-08-08T08:09:00.481Z,99041.48
2023-08-08T08:11:28.948Z,99048.21
2023-08-08T08:13:56.728Z,99052.61
2023-08-08T08:16:25.418Z,99054.02
2023-08-08T08:18:53.089Z,99053.80
2023-08-08T08:21:20.714Z,99053.09
2023-08-08T08:23:49.109Z,99055.00
2023-08-08T08:26:16.935Z,99050.28
2023-08-08T08:28:44.726Z,99047.04
2023-08-08T08:31:12.390Z,99044.42
2023-08-08T08:33:40.308Z,99046.14
2023-08-08T08:36:08.237Z,99043.00
2023-08-08T08:38:35.843Z,99047.51
2023-08-08T08:41:04.654Z,99050.19
2023-08-08T08:43:33.518Z,99052.50
2023-08-08T08:46:11.612Z,99048.35
2023-08-08T08:48:39.508Z,99050.63
2023-08-08T08:51:07.687Z,99048.40
2023-08-08T08:53:40.933Z,99044.55
2023-08-08T08:56:10.089Z,99040.66
2023-08-08T08:58:37.916Z,99037.02
2023-08-08T09:01:05.980Z,99044.67
2023-08-08T09:03:34.018Z,99041.08
2023-08-08T09:06:02.790Z,99041.86
2023-08-08T09:08:30.826Z,99041.61
2023-08-08T09:10:58.969Z,99042.29
2023-08-08T09:13:27.930Z,99044.40
2023-08-08T09:15:56.729Z,99040.65
2023-08-08T09:18:26.157Z,99042.71
2023-08-08T09:20:55.841Z,99042.13
2023-08-08T09:23:23.800Z,99039.45
2023-08-08T09:25:51.708Z,99038.12
2023-08-08T09:28:19.753Z,99044.39
2023-08-08T09:30:47.840Z,99034.28
2023-08-08T09:33:15.541Z,99034.56
2023-08-08T09:35:43.209Z,99035.16
2023-08-08T09:38:11.388Z,99039.19
2023-08-08T09:40:39.181Z,99042.52
2023-08-08T09:43:10.025Z,99038.91
2023-08-08T09:45:43.152Z,99038.64
2023-08-08T09:48:11.036Z,99037.70
2023-08-08T09:50:40.998Z,99045.65
2023-08-08T09:53:09.793Z,99046.90
2023-08-08T09:55:39.770Z,99045.15
2023-08-08T09:58:10.201Z,99044.30
2023-08-08T10:00:38.298Z,99046.92
2023-08-08T10:03:06.777Z,99045.90
2023-08-08T10:05:34.944Z,99049.95
2023-08-08T10:08:02.746Z,99048.53
2023-08-08T10:10:31.957Z,99050.42
2023-08-08T10:13:00.622Z,99048.02
2023-08-08T10:15:28.655Z,99053.36
2023-08-08T10:17:59.810Z,99052.14
2023-08-08T10:20:27.673Z,99040.70
2023-08-08T10:22:58.037Z,99043.44
2023-08-08T10:25:29.723Z,99043.92
2023-08-08T10:28:19.537Z,99049.98
2023-08-08T10:30:52.274Z,99047.48
2023-08-08T10:33:22.641Z,99052.18
2023-08-08T10:36:00.408Z,99046.61
2023-08-08T10:38:44.081Z,99038.70
2023-08-08T10:41:20.084Z,99037.41
2023-08-08T10:43:54.584Z,99039.44
2023-08-08T10:46:30.978Z,99041.38
2023-08-08T10:49:01.727Z,99044.67
2023-08-08T10:51:48.085Z,99046.56
2023-08-08T10:54:17.040Z,99041.89
2023-08-08T10:56:52.796Z,99039.06
2023-08-08T10:59:26.193Z,99042.48
2023-08-08T11:01:54.663Z,99041.98
2023-08-08T11:04:24.691Z,99048.31
2023-08-08T11:06:55.533Z,99048.44
2023-08-08T11:09:24.701Z,99048.52
2023-08-08T11:11:52.347Z,99053.29
2023-08-08T11:14:22.673Z,99055.09
2023-08-08T11:16:52.661Z,99050.96
2023-08-08T11:19:22.302Z,99040.86
2023-08-08T11:21:50.610Z,99042.39
2023-08-08T11:24:18.486Z,99045.80
2023-08-08T11:26:49.099Z,99047.55
2023-08-08T11:29:16.895Z,99042.50
2023-08-08T11:31:45.152Z,99040.17
2023-08-08T11:34:13.973Z,99045.84
2023-08-08T11:36:42.067Z,99047.47
2023-08-08T11:39:13.235Z,99045.13
2023-08-08T11:41:42.565Z,99045.80
2023-08-08T11:44:10.533Z,99048.27
2023-08-08T11:46:47.022Z,99047.33
2023-08-08T11:49:17.653Z,99044.79
2023-08-08T11:51:47.331Z,99048.41
2023-08-08T11:54:16.025Z,99052.84
2023-08-08T11:56:44.664Z,99052.64
2023-08-08T11:59:13.850Z,99057.73
2023-08-08T12:01:44.117Z,99057.06
2023-08-08T12:04:11.848Z,99057.77
2023-08-08T12:06:45.539Z,99068.14
2023-08-08T12:09:16.724Z,99065.51
2023-08-08T12:11:46.360Z,99072.05
2023-08-08T12:14:16.189Z,99073.88
2023-08-08T12:16:45.129Z,99081.13
2023-08-08T12:19:14.066Z,99079.34
2023-08-08T12:21:41.749Z,99076.69
2023-08-08T12:24:09.625Z,99073.27
2023-08-08T12:26:38.119Z,99075.54
2023-08-08T12:29:05.955Z,99080.63
2023-08-08T12:31:33.613Z,99083.05
2023-08-08T12:34:01.427Z,99081.48
2023-08-08T12:36:29.429Z,99084.64
2023-08-08T12:38:57.150Z,99083.02
2023-08-08T12:41:26.149Z,99082.77
2023-08-08T12:43:54.049Z,99082.25
2023-08-08T12:46:21.699Z,99079.39
2023-08-08T12:48:49.525Z,99073.67
2023-08-08T12:51:18.241Z,99068.76
2023-08-08T12:53:46.105Z,99061.56
2023-08-08T12:56:14.020Z,99067.70
2023-08-08T12:58:42.139Z,99065.92
2023-08-08T13:01:09.860Z,99069.80
2023-08-08T13:03:37.450Z,99069.40
2023-08-08T13:06:05.324Z,99060.69
2023-08-08T13:08:33.877Z,99059.98
2023-08-08T13:11:01.801Z,99057.02
2023-08-08T13:13:29.646Z,99053.91
2023-08-08T13:15:57.659Z,99056.66
2023-08-08T13:18:25.304Z,99057.98
2023-08-08T13:20:53.616Z,99059.44
2023-08-08T13:23:21.436Z,99057.58
2023-08-08T13:25:50.392Z,99055.70
2023-08-08T13:28:18.246Z,99057.25
2023-08-08T13:30:46.273Z,99061.10
2023-08-08T13:33:13.936Z,99062.90
2023-08-08T13:35:41.823Z,99061.56
2023-08-08T13:38:15.950Z,99063.83
2023-08-08T13:40:44.068Z,99062.16
2023-08-08T13:43:11.830Z,99064.61
2023-08-08T13:45:39.479Z,99063.73
2023-08-08T13:48:07.699Z,99065.70
2023-08-08T13:50:35.408Z,99060.64
2023-08-08T13:53:03.161Z,99062.73
2023-08-08T13:55:31.236Z,99067.42
2023-08-08T13:57:59.299Z,99075.20
2023-08-08T14:00:27.992Z,99074.66
2023-08-08T14:02:56.037Z,99070.00
2023-08-08T14:05:24.995Z,99061.90
2023-08-08T14:07:52.595Z,99058.22
2023-08-08T14:10:21.391Z,99056.10
2023-08-08T14:12:49.004Z,99058.59
2023-08-08T14:15:16.586Z,99064.59
2023-08-08T14:17:45.881Z,99063.67
2023-08-08T14:20:13.831Z,99059.47
2023-08-08T14:22:41.473Z,99061.40
2023-08-08T14:25:09.402Z,99056.27
2023-08-08T14:27:37.317Z,99054.01
2023-08-08T14:30:05.773Z,99054.48
2023-08-08T14:32:34.226Z,99059.39
2023-08-08T14:35:03.911Z,99062.25
2023-08-08T14:37:32.557Z,99062.63
2023-08-08T14:40:00.442Z,99064.53
2023-08-08T14:42:28.079Z,99068.66
2023-08-08T14:44:56.099Z,99067.70
2023-08-08T14:47:24.306Z,99074.70
2023-08-08T14:49:52.438Z,99082.88
2023-08-08T14:52:20.299Z,99083.23
2023-08-08T14:54:48.302Z,99077.52
2023-08-08T14:57:16.014Z,99075.06
2023-08-08T14:59:43.886Z,99075.55
2023-08-08T15:02:11.937Z,99077.19
2023-08-08T15:04:39.663Z,99079.42
2023-08-08T15:07:07.480Z,99079.63
2023-08-08T15:09:35.382Z,99087.68
2023-08-08T15:12:02.958Z,99087.17
2023-08-08T15:14:30.875Z,99089.80
2023-08-08T15:16:58.968Z,99090.67
2023-08-08T15:19:27.017Z,99096.81
2023-08-08T15:21:55.791Z,99104.28
2023-08-08T15:24:23.524Z,99101.23
2023-08-08T15:26:51.095Z,99097.92
2023-08-08T15:29:18.956Z,99094.23
2023-08-08T15:31:46.896Z,99092.72
2023-08-08T15:34:14.563Z,99089.14
2023-08-08T15:36:42.516Z,99084.91
2023-08-08T15:39:10.544Z,99083.11
2023-08-08T15:41:38.317Z,99084.54
2023-08-08T15:44:06.039Z,99085.55
2023-08-08T15:46:34.025Z,99086.89
2023-08-08T15:49:01.661Z,99092.80
2023-08-08T15:51:29.536Z,99094.31
2023-08-08T15:53:57.225Z,99097.69
2023-08-08T15:56:24.823Z,99098.63
2023-08-08T15:58:52.674Z,99102.22
2023-08-08T16:01:20.313Z,99100.59
2023-08-08T16:03:47.973Z,99096.30
2023-08-08T16:06:15.719Z,99097.56
2023-08-08T16:08:43.570Z,99100.11
2023-08-08T16:11:11.186Z,99101.20
2023-08-08T16:13:39.122Z,99100.64
2023-08-08T16:16:06.761Z,99103.89
2023-08-08T16:18:34.796Z,99104.65
2023-08-08T16:21:02.702Z,99109.33
2023-08-08T16:23:31.599Z,99110.09
2023-08-08T16:25:59.315Z,99113.27
2023-08-08T16:28:29.540Z,99118.61
2023-08-08T16:30:57.711Z,99125.09
2023-08-08T16:33:25.696Z,99127.73
2023-08-08T16:35:54.049Z,99133.03
2023-08-08T16:38:23.881Z,99136.80
2023-08-08T16:40:54.820Z,99133.57
2023-08-08T16:43:22.830Z,99134.64
2023-08-08T16:45:50.738Z,99132.52
2023-08-08T16:48:18.580Z,99135.07
2023-08-08T16:50:46.194Z,99130.73
2023-08-08T16:53:14.360Z,99130.32
2023-08-08T16:55:43.193Z,99128.06
2023-08-08T16:58:11.375Z,99124.95
2023-08-08T17:00:39.121Z,99122.11
2023-08-08T17:03:07.123Z,99130.70
2023-08-08T17:05:35.250Z,99137.77
2023-08-08T17:08:03.142Z,99151.42
2023-08-08T17:10:31.149Z,99159.83
2023-08-08T17:12:59.302Z,99159.77
2023-08-08T17:15:27.049Z,99159.36
2023-08-08T17:17:54.796Z,99154.38
2023-08-08T17:20:22.576Z,99155.49
2023-08-08T17:22:50.318Z,99151.29
2023-08-08T17:25:18.171Z,99150.88
2023-08-08T17:27:46.860Z,99151.69
2023-08-08T17:30:14.753Z,99153.71
2023-08-08T17:32:42.385Z,99153.86
2023-08-08T17:35:10.241Z,99158.42
2023-08-08T17:37:37.913Z,99165.46
2023-08-08T17:40:06.181Z,99171.61
2023-08-08T17:42:34.904Z,99176.27
2023-08-08T17:45:05.008Z,99183.66
2023-08-08T17:50:28.734Z,99186.27
2023-08-08T17:52:57.376Z,99185.64
2023-08-08T17:55:51.302Z,99188.06
2023-08-08T17:58:45.887Z,99193.73
2023-08-08T18:01:14.330Z,99188.48
2023-08-08T18:03:42.244Z,99183.88
2023-08-08T18:06:10.112Z,99182.40
2023-08-08T18:08:38.156Z,99188.48
2023-08-08T18:11:05.739Z,99194.37
2023-08-08T18:13:33.520Z,99200.76
2023-08-08T18:16:02.350Z,99213.32
2023-08-08T18:18:30.293Z,99223.80
2023-08-08T18:20:57.991Z,99228.08
2023-08-08T18:23:28.800Z,99223.86
2023-08-08T18:25:56.674Z,99220.08
2023-08-08T18:28:24.350Z,99215.58
2023-08-08T18:30:52.192Z,99213.35
2023-08-08T18:33:20.113Z,99214.84
2023-08-08T18:35:48.241Z,99228.58
2023-08-08T18:38:18.742Z,99238.98
2023-08-08T18:40:46.651Z,99240.96
2023-08-08T18:43:14.305Z,99244.11
2023-08-08T18:45:42.201Z,99246.05
2023-08-08T18:48:10.364Z,99237.54
2023-08-08T18:50:38.365Z,99230.86
2023-08-08T18:53:07.525Z,99237.42
2023-08-08T18:55:36.124Z,99242.71
2023-08-08T18:58:04.143Z,99237.30
2023-08-08T19:00:31.984Z,99230.01
2023-08-08T19:02:59.978Z,99226.01
2023-08-08T19:05:29.463Z,99226.88
2023-08-08T19:07:58.574Z,99230.71
2023-08-08T19:10:26.196Z,99220.15
2023-08-08T19:12:53.811Z,99205.02
2023-08-08T19:15:22.303Z,99199.34
2023-08-08T19:17:56.228Z,99212.52
2023-08-08T19:20:25.566Z,99226.12
2023-08-08T19:22:53.444Z,99225.02
2023-08-08T19:25:22.476Z,99219.25
2023-08-08T19:27:54.618Z,99211.27
2023-08-08T19:30:23.571Z,99203.66
2023-08-08T19:32:51.592Z,99196.33
2023-08-08T19:35:19.392Z,99202.71
2023-08-08T19:37:47.075Z,99208.88
2023-08-08T19:40:14.957Z,99217.31
2023-08-08T19:42:44.722Z,99226.43
2023-08-08T19:45:12.409Z,99237.23
2023-08-08T19:47:40.439Z,99243.29
2023-08-08T19:50:08.637Z,99242.10
2023-08-08T19:52:36.528Z,99235.75
2023-08-08T19:55:04.891Z,99231.65
2023-08-08T19:57:35.096Z,99226.45
2023-08-08T20:00:05.284Z,99223.90
2023-08-08T20:02:40.563Z,99225.06
2023-08-08T20:05:09.587Z,99222.13
2023-08-08T20:07:37.352Z,99229.91
2023-08-08T20:10:06.731Z,99240.15
2023-08-08T20:12:34.600Z,99244.45
2023-08-08T20:15:02.529Z,99244.81
2023-08-08T20:17:34.662Z,99233.62
2023-08-08T20:20:02.809Z,99233.65
2023-08-08T20:22:30.662Z,99235.80
2023-08-08T20:24:58.588Z,99234.39
2023-08-08T20:27:26.408Z,99235.63
2023-08-08T20:29:54.287Z,99240.83
2023-08-08T20:32:21.890Z,99241.59
2023-08-08T20:34:49.917Z,99242.38
2023-08-08T20:37:19.950Z,99237.21
2023-08-08T20:39:47.619Z,99232.39
2023-08-08T20:42:15.545Z,99239.32
2023-08-08T20:44:43.533Z,99234.09
2023-08-08T20:47:11.580Z,99233.50
2023-08-08T20:49:39.550Z,99228.71
2023-08-08T20:52:07.655Z,99224.69
2023-08-08T20:54:35.361Z,99224.94
2023-08-08T20:57:03.539Z,99224.69
2023-08-08T20:59:49.214Z,99224.35
2023-08-08T21:02:18.624Z,99223.05
2023-08-08T21:04:53.517Z,99215.41
2023-08-08T21:07:21.458Z,99209.21
2023-08-08T21:09:49.184Z,99208.10
2023-08-08T21:12:17.107Z,99217.02
2023-08-08T21:14:45.060Z,99230.52
2023-08-08T21:17:13.598Z,99241.70
2023-08-08T21:19:41.824Z,99249.71
2023-08-08T21:22:10.647Z,99261.01
2023-08-08T21:24:38.653Z,99266.95
2023-08-08T21:27:06.918Z,99268.99
2023-08-08T21:29:34.964Z,99266.64
2023-08-08T21:32:02.564Z,99260.20
2023-08-08T21:34:30.516Z,99251.18
2023-08-08T21:36:58.124Z,99256.48
2023-08-08T21:39:25.986Z,99265.33
2023-08-08T21:41:53.676Z,99266.24
2023-08-08T21:44:24.146Z,99264.35
2023-08-08T21:46:53.069Z,99269.49
2023-08-08T21:49:20.690Z,99262.79
2023-08-08T21:51:48.566Z,99257.05
2023-08-08T21:54:16.864Z,99258.39
2023-08-08T21:56:46.339Z,99255.63
2023-08-08T21:59:14.152Z,99258.08
2023-08-08T22:01:41.959Z,99256.27
2023-08-08T22:04:09.888Z,99259.84
2023-08-08T22:06:37.714Z,99256.00
2023-08-08T22:09:09.121Z,99255.55
2023-08-08T22:11:36.825Z,99253.36
2023-08-08T22:14:04.791Z,99254.16
2023-08-08T22:16:32.757Z,99257.29
2023-08-08T22:19:00.605Z,99256.12
2023-08-08T22:21:28.695Z,99255.08
2023-08-08T22:23:56.453Z,99258.64
2023-08-08T22:26:24.634Z,99260.50
2023-08-08T22:28:59.839Z,99264.02
2023-08-08T22:31:28.249Z,99267.34
2023-08-08T22:33:56.431Z,99267.23
2023-08-08T22:36:24.259Z,99268.68
2023-08-08T22:38:52.000Z,99262.69
2023-08-08T22:41:19.731Z,99261.36
2023-08-08T22:43:47.488Z,99259.48
2023-08-08T22:46:15.382Z,99258.33
2023-08-08T22:48:43.075Z,99261.92
2023-08-08T22:51:10.777Z,99262.07
2023-08-08T22:53:38.675Z,99263.69
2023-08-08T22:56:06.429Z,99260.14
2023-08-08T22:58:58.899Z,99263.02
2023-08-08T23:01:26.552Z,99266.08
2023-08-08T23:03:54.407Z,99263.11
2023-08-08T23:06:22.038Z,99263.76
2023-08-08T23:08:50.745Z,99259.24
2023-08-08T23:11:18.497Z,99259.96
2023-08-08T23:13:46.478Z,99255.53
2023-08-08T23:16:14.351Z,99252.15
2023-08-08T23:18:42.699Z,99244.42
2023-08-08T23:21:10.268Z,99248.88
2023-08-08T23:23:38.248Z,99259.34
2023-08-08T23:26:06.072Z,99264.73
2023-08-08T23:28:33.838Z,99260.79
2023-08-08T23:31:01.800Z,99266.10
2023-08-08T23:33:30.183Z,99271.67
2023-08-08T23:35:57.887Z,99272.65
2023-08-08T23:38:25.796Z,99280.63
2023-08-08T23:40:53.427Z,99285.75
2023-08-08T23:43:21.026Z,99287.48
2023-08-08T23:45:48.909Z,99286.27
2023-08-08T23:48:16.526Z,99290.66
2023-08-08T23:50:44.152Z,99290.34
2023-08-08T23:53:11.873Z,99292.81
2023-08-08T23:55:41.518Z,99291.00
2023-08-08T23:58:09.308Z,99289.17
